sensor_id;sensor_type;location;lat;lon;timestamp;P1;durP1;ratioP1;P2;durP2;ratioP2
20709;SDS011;10516;51.518;9.864;2022-08-03T00:02:11;3.53;;;3.22;;
20709;SDS011;10516;51.518;9.864;2022-08-03T00:04:37;3.83;;;3.53;;
20709;SDS011;10516;51.518;9.864;2022-08-03T00:07:02;3.72;;;3.08;;
20709;SDS011;10516;51.518;9.864;2022-08-03T00:09:28;3.80;;;3.22;;
20709;SDS011;10516;51.518;9.864;2022-08-03T00:11:55;3.10;;;2.90;;
20709;SDS011;10516;51.518;9.864;2022-08-03T00:14:20;4.53;;;3.47;;
20709;SDS011;10516;51.518;9.864;2022-08-03T00:16:45;3.65;;;3.35;;
20709;SDS011;10516;51.518;9.864;2022-08-03T00:19:11;3.63;;;3.33;;
20709;SDS011;10516;51.518;9.864;2022-08-03T00:21:36;4.13;;;3.70;;
20709;SDS011;10516;51.518;9.864;2022-08-03T00:24:02;3.60;;;3.30;;
20709;SDS011;10516;51.518;9.864;2022-08-03T00:26:27;3.03;;;2.80;;
20709;SDS011;10516;51.518;9.864;2022-08-03T00:28:53;3.83;;;3.53;;
20709;SDS011;10516;51.518;9.864;2022-08-03T00:31:18;3.80;;;3.40;;
20709;SDS011;10516;51.518;9.864;2022-08-03T00:33:44;3.25;;;3.05;;
20709;SDS011;10516;51.518;9.864;2022-08-03T00:36:09;3.15;;;2.95;;
20709;SDS011;10516;51.518;9.864;2022-08-03T00:38:34;4.22;;;3.42;;
20709;SDS011;10516;51.518;9.864;2022-08-03T00:41:00;3.67;;;3.33;;
20709;SDS011;10516;51.518;9.864;2022-08-03T00:43:25;3.92;;;3.58;;
20709;SDS011;10516;51.518;9.864;2022-08-03T00:45:51;3.33;;;3.03;;
20709;SDS011;10516;51.518;9.864;2022-08-03T00:48:18;4.50;;;3.50;;
20709;SDS011;10516;51.518;9.864;2022-08-03T00:50:44;3.33;;;3.13;;
20709;SDS011;10516;51.518;9.864;2022-08-03T00:53:10;3.58;;;3.30;;
20709;SDS011;10516;51.518;9.864;2022-08-03T00:55:37;3.80;;;3.50;;
20709;SDS011;10516;51.518;9.864;2022-08-03T00:58:03;3.65;;;3.35;;
20709;SDS011;10516;51.518;9.864;2022-08-03T01:00:32;4.00;;;3.67;;
20709;SDS011;10516;51.518;9.864;2022-08-03T01:03:00;5.03;;;2.90;;
20709;SDS011;10516;51.518;9.864;2022-08-03T01:05:26;3.60;;;3.30;;
20709;SDS011;10516;51.518;9.864;2022-08-03T01:24:36;3.78;;;3.47;;
20709;SDS011;10516;51.518;9.864;2022-08-03T01:27:18;3.75;;;3.45;;
20709;SDS011;10516;51.518;9.864;2022-08-03T01:30:06;3.70;;;3.27;;
20709;SDS011;10516;51.518;9.864;2022-08-03T01:35:03;3.30;;;3.00;;
20709;SDS011;10516;51.518;9.864;2022-08-03T01:37:37;3.55;;;3.25;;
20709;SDS011;10516;51.518;9.864;2022-08-03T01:40:06;3.75;;;3.40;;
20709;SDS011;10516;51.518;9.864;2022-08-03T01:42:35;4.35;;;3.38;;
20709;SDS011;10516;51.518;9.864;2022-08-03T01:45:02;4.57;;;3.40;;
20709;SDS011;10516;51.518;9.864;2022-08-03T01:47:28;3.83;;;3.53;;
20709;SDS011;10516;51.518;9.864;2022-08-03T01:49:55;5.18;;;3.65;;
20709;SDS011;10516;51.518;9.864;2022-08-03T01:52:23;3.70;;;3.40;;
20709;SDS011;10516;51.518;9.864;2022-08-03T01:54:51;3.38;;;3.13;;
20709;SDS011;10516;51.518;9.864;2022-08-03T01:57:18;3.90;;;3.60;;
20709;SDS011;10516;51.518;9.864;2022-08-03T01:59:45;5.68;;;3.47;;
20709;SDS011;10516;51.518;9.864;2022-08-03T02:02:14;4.13;;;3.30;;
20709;SDS011;10516;51.518;9.864;2022-08-03T02:04:41;3.38;;;3.08;;
20709;SDS011;10516;51.518;9.864;2022-08-03T02:07:08;4.80;;;3.85;;
20709;SDS011;10516;51.518;9.864;2022-08-03T02:09:35;3.45;;;3.15;;
20709;SDS011;10516;51.518;9.864;2022-08-03T02:12:06;3.50;;;3.22;;
20709;SDS011;10516;51.518;9.864;2022-08-03T02:14:33;3.72;;;3.42;;
20709;SDS011;10516;51.518;9.864;2022-08-03T02:16:59;4.03;;;3.25;;
20709;SDS011;10516;51.518;9.864;2022-08-03T02:19:25;4.07;;;3.80;;
20709;SDS011;10516;51.518;9.864;2022-08-03T02:21:52;4.47;;;3.65;;
20709;SDS011;10516;51.518;9.864;2022-08-03T02:24:18;3.20;;;3.00;;
20709;SDS011;10516;51.518;9.864;2022-08-03T02:26:43;3.90;;;3.47;;
20709;SDS011;10516;51.518;9.864;2022-08-03T02:29:11;4.35;;;3.95;;
20709;SDS011;10516;51.518;9.864;2022-08-03T02:31:40;5.00;;;3.40;;
20709;SDS011;10516;51.518;9.864;2022-08-03T02:34:08;3.78;;;3.30;;
20709;SDS011;10516;51.518;9.864;2022-08-03T02:36:38;4.55;;;3.78;;
20709;SDS011;10516;51.518;9.864;2022-08-03T02:39:08;4.53;;;3.72;;
20709;SDS011;10516;51.518;9.864;2022-08-03T02:41:46;4.07;;;3.67;;
20709;SDS011;10516;51.518;9.864;2022-08-03T02:44:15;3.72;;;3.40;;
20709;SDS011;10516;51.518;9.864;2022-08-03T02:46:43;3.58;;;3.28;;
20709;SDS011;10516;51.518;9.864;2022-08-03T02:49:11;3.22;;;2.92;;
20709;SDS011;10516;51.518;9.864;2022-08-03T02:51:38;3.30;;;3.10;;
20709;SDS011;10516;51.518;9.864;2022-08-03T02:54:05;3.75;;;3.45;;
20709;SDS011;10516;51.518;9.864;2022-08-03T02:56:33;3.70;;;3.40;;
20709;SDS011;10516;51.518;9.864;2022-08-03T02:59:00;3.50;;;3.10;;
20709;SDS011;10516;51.518;9.864;2022-08-03T03:01:27;3.83;;;3.53;;
20709;SDS011;10516;51.518;9.864;2022-08-03T03:03:54;3.75;;;3.45;;
20709;SDS011;10516;51.518;9.864;2022-08-03T03:06:21;3.58;;;3.17;;
20709;SDS011;10516;51.518;9.864;2022-08-03T03:08:52;3.53;;;3.33;;
20709;SDS011;10516;51.518;9.864;2022-08-03T03:11:20;4.35;;;3.90;;
20709;SDS011;10516;51.518;9.864;2022-08-03T03:13:47;3.75;;;3.50;;
20709;SDS011;10516;51.518;9.864;2022-08-03T03:16:14;4.50;;;3.90;;
20709;SDS011;10516;51.518;9.864;2022-08-03T03:18:41;4.00;;;3.70;;
20709;SDS011;10516;51.518;9.864;2022-08-03T03:21:08;3.75;;;3.45;;
20709;SDS011;10516;51.518;9.864;2022-08-03T03:23:38;4.32;;;3.35;;
20709;SDS011;10516;51.518;9.864;2022-08-03T03:26:05;4.18;;;3.53;;
20709;SDS011;10516;51.518;9.864;2022-08-03T03:28:31;3.67;;;3.38;;
20709;SDS011;10516;51.518;9.864;2022-08-03T03:30:58;3.63;;;3.33;;
20709;SDS011;10516;51.518;9.864;2022-08-03T03:33:23;4.45;;;3.58;;
20709;SDS011;10516;51.518;9.864;2022-08-03T03:35:50;4.07;;;3.38;;
20709;SDS011;10516;51.518;9.864;2022-08-03T03:38:17;3.80;;;3.50;;
20709;SDS011;10516;51.518;9.864;2022-08-03T03:40:44;3.67;;;3.38;;
20709;SDS011;10516;51.518;9.864;2022-08-03T03:43:10;3.67;;;3.15;;
20709;SDS011;10516;51.518;9.864;2022-08-03T03:45:36;3.83;;;3.53;;
20709;SDS011;10516;51.518;9.864;2022-08-03T03:48:02;4.03;;;3.63;;
20709;SDS011;10516;51.518;9.864;2022-08-03T03:50:29;4.22;;;3.30;;
20709;SDS011;10516;51.518;9.864;2022-08-03T03:52:56;4.00;;;3.70;;
20709;SDS011;10516;51.518;9.864;2022-08-03T03:55:21;4.53;;;3.60;;
20709;SDS011;10516;51.518;9.864;2022-08-03T03:57:47;4.47;;;4.07;;
20709;SDS011;10516;51.518;9.864;2022-08-03T04:00:13;3.75;;;3.50;;
20709;SDS011;10516;51.518;9.864;2022-08-03T04:02:40;5.78;;;3.67;;
20709;SDS011;10516;51.518;9.864;2022-08-03T04:05:06;3.80;;;3.50;;
20709;SDS011;10516;51.518;9.864;2022-08-03T04:08:00;3.90;;;3.35;;
20709;SDS011;10516;51.518;9.864;2022-08-03T04:16:25;4.55;;;3.53;;
20709;SDS011;10516;51.518;9.864;2022-08-03T04:18:56;3.45;;;3.15;;
20709;SDS011;10516;51.518;9.864;2022-08-03T04:21:42;3.80;;;3.50;;
20709;SDS011;10516;51.518;9.864;2022-08-03T04:24:12;3.72;;;3.42;;
20709;SDS011;10516;51.518;9.864;2022-08-03T04:26:39;4.07;;;2.97;;
20709;SDS011;10516;51.518;9.864;2022-08-03T04:29:07;5.18;;;3.28;;
20709;SDS011;10516;51.518;9.864;2022-08-03T04:31:34;5.65;;;4.18;;
20709;SDS011;10516;51.518;9.864;2022-08-03T04:34:02;4.60;;;4.20;;
20709;SDS011;10516;51.518;9.864;2022-08-03T04:36:29;5.93;;;3.95;;
20709;SDS011;10516;51.518;9.864;2022-08-03T04:39:03;5.18;;;4.03;;
20709;SDS011;10516;51.518;9.864;2022-08-03T04:41:34;3.70;;;3.40;;
20709;SDS011;10516;51.518;9.864;2022-08-03T04:44:00;4.80;;;4.40;;
20709;SDS011;10516;51.518;9.864;2022-08-03T04:46:31;5.05;;;4.55;;
20709;SDS011;10516;51.518;9.864;2022-08-03T04:48:58;7.78;;;4.47;;
20709;SDS011;10516;51.518;9.864;2022-08-03T04:51:25;4.72;;;4.32;;
20709;SDS011;10516;51.518;9.864;2022-08-03T04:53:50;4.18;;;3.83;;
20709;SDS011;10516;51.518;9.864;2022-08-03T04:56:16;8.32;;;4.40;;
20709;SDS011;10516;51.518;9.864;2022-08-03T04:58:41;4.07;;;3.78;;
20709;SDS011;10516;51.518;9.864;2022-08-03T05:01:07;4.50;;;4.10;;
20709;SDS011;10516;51.518;9.864;2022-08-03T05:03:32;5.50;;;3.83;;
20709;SDS011;10516;51.518;9.864;2022-08-03T05:05:58;5.80;;;5.05;;
20709;SDS011;10516;51.518;9.864;2022-08-03T05:08:23;6.70;;;4.80;;
20709;SDS011;10516;51.518;9.864;2022-08-03T05:10:48;7.43;;;4.63;;
20709;SDS011;10516;51.518;9.864;2022-08-03T05:13:14;5.03;;;4.20;;
20709;SDS011;10516;51.518;9.864;2022-08-03T05:15:39;6.00;;;5.30;;
20709;SDS011;10516;51.518;9.864;2022-08-03T05:18:08;5.47;;;4.90;;
20709;SDS011;10516;51.518;9.864;2022-08-03T05:20:34;7.30;;;4.47;;
20709;SDS011;10516;51.518;9.864;2022-08-03T05:22:59;8.60;;;4.75;;
20709;SDS011;10516;51.518;9.864;2022-08-03T05:25:26;8.07;;;4.70;;
20709;SDS011;10516;51.518;9.864;2022-08-03T05:27:52;6.45;;;4.82;;
20709;SDS011;10516;51.518;9.864;2022-08-03T05:30:17;7.03;;;3.72;;
20709;SDS011;10516;51.518;9.864;2022-08-03T05:32:43;3.72;;;3.33;;
20709;SDS011;10516;51.518;9.864;2022-08-03T05:35:08;4.35;;;3.58;;
20709;SDS011;10516;51.518;9.864;2022-08-03T05:37:34;7.25;;;4.75;;
20709;SDS011;10516;51.518;9.864;2022-08-03T05:39:59;4.43;;;3.90;;
20709;SDS011;10516;51.518;9.864;2022-08-03T05:42:25;6.68;;;3.40;;
20709;SDS011;10516;51.518;9.864;2022-08-03T05:44:50;3.55;;;3.25;;
20709;SDS011;10516;51.518;9.864;2022-08-03T05:47:15;4.38;;;3.38;;
20709;SDS011;10516;51.518;9.864;2022-08-03T05:49:41;8.65;;;4.28;;
20709;SDS011;10516;51.518;9.864;2022-08-03T05:52:06;5.72;;;3.92;;
20709;SDS011;10516;51.518;9.864;2022-08-03T05:54:32;4.00;;;3.70;;
20709;SDS011;10516;51.518;9.864;2022-08-03T05:56:57;4.20;;;3.80;;
20709;SDS011;10516;51.518;9.864;2022-08-03T05:59:22;5.35;;;4.13;;
20709;SDS011;10516;51.518;9.864;2022-08-03T06:01:49;5.32;;;3.10;;
20709;SDS011;10516;51.518;9.864;2022-08-03T06:04:15;3.25;;;2.97;;
20709;SDS011;10516;51.518;9.864;2022-08-03T06:06:40;8.45;;;3.70;;
20709;SDS011;10516;51.518;9.864;2022-08-03T06:09:07;4.85;;;4.32;;
20709;SDS011;10516;51.518;9.864;2022-08-03T06:11:33;4.32;;;3.85;;
20709;SDS011;10516;51.518;9.864;2022-08-03T06:13:59;4.30;;;4.00;;
20709;SDS011;10516;51.518;9.864;2022-08-03T06:16:24;5.32;;;4.32;;
20709;SDS011;10516;51.518;9.864;2022-08-03T06:18:49;3.22;;;3.00;;
20709;SDS011;10516;51.518;9.864;2022-08-03T06:21:15;5.43;;;3.97;;
20709;SDS011;10516;51.518;9.864;2022-08-03T06:23:40;5.70;;;4.20;;
20709;SDS011;10516;51.518;9.864;2022-08-03T06:26:07;4.28;;;3.47;;
20709;SDS011;10516;51.518;9.864;2022-08-03T06:28:33;2.88;;;2.67;;
20709;SDS011;10516;51.518;9.864;2022-08-03T06:30:58;3.70;;;3.35;;
20709;SDS011;10516;51.518;9.864;2022-08-03T06:33:23;4.60;;;3.67;;
20709;SDS011;10516;51.518;9.864;2022-08-03T06:35:50;3.50;;;3.30;;
20709;SDS011;10516;51.518;9.864;2022-08-03T06:38:15;6.80;;;3.72;;
20709;SDS011;10516;51.518;9.864;2022-08-03T06:40:41;3.53;;;3.20;;
20709;SDS011;10516;51.518;9.864;2022-08-03T06:43:06;4.35;;;3.95;;
20709;SDS011;10516;51.518;9.864;2022-08-03T06:45:32;7.78;;;4.05;;
20709;SDS011;10516;51.518;9.864;2022-08-03T06:48:05;6.13;;;3.83;;
20709;SDS011;10516;51.518;9.864;2022-08-03T06:50:32;5.35;;;3.70;;
20709;SDS011;10516;51.518;9.864;2022-08-03T06:52:59;3.30;;;3.00;;
20709;SDS011;10516;51.518;9.864;2022-08-03T06:55:25;3.45;;;3.17;;
20709;SDS011;10516;51.518;9.864;2022-08-03T06:57:50;3.00;;;2.80;;
20709;SDS011;10516;51.518;9.864;2022-08-03T07:00:16;5.10;;;3.45;;
20709;SDS011;10516;51.518;9.864;2022-08-03T07:02:42;2.90;;;2.70;;
20709;SDS011;10516;51.518;9.864;2022-08-03T07:05:08;4.63;;;3.85;;
20709;SDS011;10516;51.518;9.864;2022-08-03T07:07:34;6.07;;;2.97;;
20709;SDS011;10516;51.518;9.864;2022-08-03T07:10:00;5.28;;;3.42;;
20709;SDS011;10516;51.518;9.864;2022-08-03T07:12:26;3.63;;;3.03;;
20709;SDS011;10516;51.518;9.864;2022-08-03T07:14:53;7.88;;;3.85;;
20709;SDS011;10516;51.518;9.864;2022-08-03T07:17:19;6.32;;;3.67;;
20709;SDS011;10516;51.518;9.864;2022-08-03T07:19:44;5.60;;;3.40;;
20709;SDS011;10516;51.518;9.864;2022-08-03T07:22:10;6.05;;;3.20;;
20709;SDS011;10516;51.518;9.864;2022-08-03T07:24:35;5.00;;;2.80;;
20709;SDS011;10516;51.518;9.864;2022-08-03T07:27:01;4.47;;;4.07;;
20709;SDS011;10516;51.518;9.864;2022-08-03T07:29:26;6.40;;;3.70;;
20709;SDS011;10516;51.518;9.864;2022-08-03T07:31:52;5.30;;;3.08;;
20709;SDS011;10516;51.518;9.864;2022-08-03T07:34:17;3.75;;;3.28;;
20709;SDS011;10516;51.518;9.864;2022-08-03T07:36:43;6.72;;;3.08;;
20709;SDS011;10516;51.518;9.864;2022-08-03T07:39:08;4.20;;;3.25;;
20709;SDS011;10516;51.518;9.864;2022-08-03T07:41:33;3.60;;;3.08;;
20709;SDS011;10516;51.518;9.864;2022-08-03T07:43:59;3.75;;;2.90;;
20709;SDS011;10516;51.518;9.864;2022-08-03T07:46:24;8.38;;;3.53;;
20709;SDS011;10516;51.518;9.864;2022-08-03T07:48:50;6.00;;;3.05;;
20709;SDS011;10516;51.518;9.864;2022-08-03T07:51:16;3.40;;;3.10;;
20709;SDS011;10516;51.518;9.864;2022-08-03T07:53:41;6.53;;;3.13;;
20709;SDS011;10516;51.518;9.864;2022-08-03T07:56:06;4.70;;;3.17;;
20709;SDS011;10516;51.518;9.864;2022-08-03T07:58:32;4.20;;;3.05;;
20709;SDS011;10516;51.518;9.864;2022-08-03T08:00:59;5.57;;;2.72;;
20709;SDS011;10516;51.518;9.864;2022-08-03T08:03:25;3.05;;;2.85;;
20709;SDS011;10516;51.518;9.864;2022-08-03T08:05:50;4.20;;;2.70;;
20709;SDS011;10516;51.518;9.864;2022-08-03T08:08:17;3.03;;;2.83;;
20709;SDS011;10516;51.518;9.864;2022-08-03T08:10:44;4.97;;;2.67;;
20709;SDS011;10516;51.518;9.864;2022-08-03T08:13:09;3.53;;;2.67;;
20709;SDS011;10516;51.518;9.864;2022-08-03T08:15:35;3.90;;;2.90;;
20709;SDS011;10516;51.518;9.864;2022-08-03T08:18:00;2.75;;;2.45;;
20709;SDS011;10516;51.518;9.864;2022-08-03T08:20:31;2.88;;;2.47;;
20709;SDS011;10516;51.518;9.864;2022-08-03T08:22:58;3.50;;;2.25;;
20709;SDS011;10516;51.518;9.864;2022-08-03T08:25:25;5.32;;;2.97;;
20709;SDS011;10516;51.518;9.864;2022-08-03T08:27:50;2.72;;;2.47;;
20709;SDS011;10516;51.518;9.864;2022-08-03T08:30:17;2.20;;;2.10;;
20709;SDS011;10516;51.518;9.864;2022-08-03T08:32:44;3.25;;;2.30;;
20709;SDS011;10516;51.518;9.864;2022-08-03T08:35:10;2.58;;;2.38;;
20709;SDS011;10516;51.518;9.864;2022-08-03T08:37:36;4.13;;;2.38;;
20709;SDS011;10516;51.518;9.864;2022-08-03T08:40:02;3.15;;;2.22;;
20709;SDS011;10516;51.518;9.864;2022-08-03T08:42:30;1.85;;;1.75;;
20709;SDS011;10516;51.518;9.864;2022-08-03T08:44:56;2.45;;;2.25;;
20709;SDS011;10516;51.518;9.864;2022-08-03T08:47:22;4.15;;;2.55;;
20709;SDS011;10516;51.518;9.864;2022-08-03T08:49:53;4.05;;;2.50;;
20709;SDS011;10516;51.518;9.864;2022-08-03T08:52:26;2.75;;;2.10;;
20709;SDS011;10516;51.518;9.864;2022-08-03T08:55:04;4.65;;;2.55;;
20709;SDS011;10516;51.518;9.864;2022-08-03T08:57:38;2.40;;;2.20;;
20709;SDS011;10516;51.518;9.864;2022-08-03T09:00:10;5.35;;;2.38;;
20709;SDS011;10516;51.518;9.864;2022-08-03T09:02:38;2.22;;;2.10;;
20709;SDS011;10516;51.518;9.864;2022-08-03T09:05:08;2.65;;;2.10;;
20709;SDS011;10516;51.518;9.864;2022-08-03T09:07:38;3.72;;;2.20;;
20709;SDS011;10516;51.518;9.864;2022-08-03T09:10:04;3.53;;;2.47;;
20709;SDS011;10516;51.518;9.864;2022-08-03T09:12:35;4.22;;;2.40;;
20709;SDS011;10516;51.518;9.864;2022-08-03T09:15:18;2.25;;;2.05;;
20709;SDS011;10516;51.518;9.864;2022-08-03T09:17:45;3.75;;;1.85;;
20709;SDS011;10516;51.518;9.864;2022-08-03T09:20:11;2.65;;;2.45;;
20709;SDS011;10516;51.518;9.864;2022-08-03T09:25:34;2.25;;;2.13;;
20709;SDS011;10516;51.518;9.864;2022-08-03T09:28:03;3.13;;;2.25;;
20709;SDS011;10516;51.518;9.864;2022-08-03T09:30:35;3.67;;;2.38;;
20709;SDS011;10516;51.518;9.864;2022-08-03T09:33:07;2.10;;;2.00;;
20709;SDS011;10516;51.518;9.864;2022-08-03T09:36:07;2.40;;;2.20;;
20709;SDS011;10516;51.518;9.864;2022-08-03T09:38:25;4.10;;;2.55;;
20709;SDS011;10516;51.518;9.864;2022-08-03T09:40:51;2.58;;;2.38;;
20709;SDS011;10516;51.518;9.864;2022-08-03T09:43:18;3.08;;;2.28;;
20709;SDS011;10516;51.518;9.864;2022-08-03T09:45:43;2.58;;;2.38;;
20709;SDS011;10516;51.518;9.864;2022-08-03T09:48:18;3.22;;;2.33;;
20709;SDS011;10516;51.518;9.864;2022-08-03T09:53:18;8.13;;;2.35;;
20709;SDS011;10516;51.518;9.864;2022-08-03T09:55:58;5.15;;;2.10;;
20709;SDS011;10516;51.518;9.864;2022-08-03T09:58:26;2.28;;;2.17;;
20709;SDS011;10516;51.518;9.864;2022-08-03T10:00:55;3.67;;;2.35;;
20709;SDS011;10516;51.518;9.864;2022-08-03T10:03:22;2.80;;;2.60;;
20709;SDS011;10516;51.518;9.864;2022-08-03T10:05:49;2.38;;;2.13;;
20709;SDS011;10516;51.518;9.864;2022-08-03T10:08:15;4.18;;;2.40;;
20709;SDS011;10516;51.518;9.864;2022-08-03T10:10:42;2.50;;;2.28;;
20709;SDS011;10516;51.518;9.864;2022-08-03T10:13:10;4.90;;;2.80;;
20709;SDS011;10516;51.518;9.864;2022-08-03T10:15:37;2.47;;;2.30;;
20709;SDS011;10516;51.518;9.864;2022-08-03T10:18:06;5.45;;;2.13;;
20709;SDS011;10516;51.518;9.864;2022-08-03T10:20:35;3.65;;;2.17;;
20709;SDS011;10516;51.518;9.864;2022-08-03T10:23:02;2.78;;;2.58;;
20709;SDS011;10516;51.518;9.864;2022-08-03T10:25:29;1.73;;;1.63;;
20709;SDS011;10516;51.518;9.864;2022-08-03T10:27:58;5.85;;;2.65;;
20709;SDS011;10516;51.518;9.864;2022-08-03T10:30:28;2.05;;;1.90;;
20709;SDS011;10516;51.518;9.864;2022-08-03T10:32:59;3.60;;;2.38;;
20709;SDS011;10516;51.518;9.864;2022-08-03T10:35:27;2.45;;;2.20;;
20709;SDS011;10516;51.518;9.864;2022-08-03T10:37:58;5.35;;;2.42;;
20709;SDS011;10516;51.518;9.864;2022-08-03T10:40:47;2.80;;;2.10;;
20709;SDS011;10516;51.518;9.864;2022-08-03T10:43:18;2.35;;;2.03;;
20709;SDS011;10516;51.518;9.864;2022-08-03T10:45:51;4.57;;;2.20;;
20709;SDS011;10516;51.518;9.864;2022-08-03T10:48:17;4.05;;;2.45;;
20709;SDS011;10516;51.518;9.864;2022-08-03T10:50:47;2.15;;;2.05;;
20709;SDS011;10516;51.518;9.864;2022-08-03T10:53:13;2.33;;;2.22;;
20709;SDS011;10516;51.518;9.864;2022-08-03T10:55:40;4.10;;;2.28;;
20709;SDS011;10516;51.518;9.864;2022-08-03T11:01:07;5.47;;;2.35;;
20709;SDS011;10516;51.518;9.864;2022-08-03T11:03:33;4.40;;;2.28;;
20709;SDS011;10516;51.518;9.864;2022-08-03T11:08:45;3.45;;;2.65;;
20709;SDS011;10516;51.518;9.864;2022-08-03T11:13:57;4.85;;;2.30;;
20709;SDS011;10516;51.518;9.864;2022-08-03T11:16:33;3.30;;;2.17;;
20709;SDS011;10516;51.518;9.864;2022-08-03T11:19:01;5.70;;;2.72;;
20709;SDS011;10516;51.518;9.864;2022-08-03T11:27:34;1.65;;;1.55;;
20709;SDS011;10516;51.518;9.864;2022-08-03T11:35:09;2.28;;;2.03;;
20709;SDS011;10516;51.518;9.864;2022-08-03T11:43:06;1.83;;;1.73;;
20709;SDS011;10516;51.518;9.864;2022-08-03T11:45:33;2.42;;;2.22;;
20709;SDS011;10516;51.518;9.864;2022-08-03T11:48:01;2.22;;;2.10;;
20709;SDS011;10516;51.518;9.864;2022-08-03T11:50:38;9.10;;;2.35;;
20709;SDS011;10516;51.518;9.864;2022-08-03T11:53:04;4.57;;;2.25;;
20709;SDS011;10516;51.518;9.864;2022-08-03T11:55:30;2.38;;;2.17;;
20709;SDS011;10516;51.518;9.864;2022-08-03T11:57:59;2.45;;;2.25;;
20709;SDS011;10516;51.518;9.864;2022-08-03T12:00:29;2.03;;;1.92;;
20709;SDS011;10516;51.518;9.864;2022-08-03T12:05:33;4.15;;;1.92;;
20709;SDS011;10516;51.518;9.864;2022-08-03T12:07:58;2.10;;;2.00;;
20709;SDS011;10516;51.518;9.864;2022-08-03T12:10:24;2.42;;;2.05;;
20709;SDS011;10516;51.518;9.864;2022-08-03T12:12:54;4.10;;;1.63;;
20709;SDS011;10516;51.518;9.864;2022-08-03T12:17:52;4.15;;;1.95;;
20709;SDS011;10516;51.518;9.864;2022-08-03T12:20:22;2.55;;;1.90;;
20709;SDS011;10516;51.518;9.864;2022-08-03T12:22:49;2.55;;;1.60;;
20709;SDS011;10516;51.518;9.864;2022-08-03T12:25:22;2.65;;;1.80;;
20709;SDS011;10516;51.518;9.864;2022-08-03T12:27:50;5.33;;;1.73;;
20709;SDS011;10516;51.518;9.864;2022-08-03T12:30:16;1.95;;;1.75;;
20709;SDS011;10516;51.518;9.864;2022-08-03T12:32:43;2.88;;;1.73;;
20709;SDS011;10516;51.518;9.864;2022-08-03T12:35:08;3.22;;;2.30;;
20709;SDS011;10516;51.518;9.864;2022-08-03T12:37:34;2.95;;;2.10;;
20709;SDS011;10516;51.518;9.864;2022-08-03T12:40:00;2.05;;;1.90;;
20709;SDS011;10516;51.518;9.864;2022-08-03T12:42:34;2.00;;;1.90;;
20709;SDS011;10516;51.518;9.864;2022-08-03T12:45:20;2.22;;;2.13;;
20709;SDS011;10516;51.518;9.864;2022-08-03T12:47:50;1.83;;;1.73;;
20709;SDS011;10516;51.518;9.864;2022-08-03T12:50:29;4.07;;;1.92;;
20709;SDS011;10516;51.518;9.864;2022-08-03T12:52:57;1.75;;;1.65;;
20709;SDS011;10516;51.518;9.864;2022-08-03T12:55:23;2.10;;;2.00;;
20709;SDS011;10516;51.518;9.864;2022-08-03T12:57:58;1.92;;;1.70;;
20709;SDS011;10516;51.518;9.864;2022-08-03T13:00:23;5.13;;;1.98;;
20709;SDS011;10516;51.518;9.864;2022-08-03T13:03:24;1.83;;;1.70;;
20709;SDS011;10516;51.518;9.864;2022-08-03T13:05:44;2.67;;;1.92;;
20709;SDS011;10516;51.518;9.864;2022-08-03T13:08:20;1.88;;;1.77;;
20709;SDS011;10516;51.518;9.864;2022-08-03T13:10:46;4.80;;;2.05;;
20709;SDS011;10516;51.518;9.864;2022-08-03T13:13:12;2.15;;;1.88;;
20709;SDS011;10516;51.518;9.864;2022-08-03T13:15:37;3.22;;;1.92;;
20709;SDS011;10516;51.518;9.864;2022-08-03T13:18:03;1.75;;;1.65;;
20709;SDS011;10516;51.518;9.864;2022-08-03T13:20:28;2.55;;;1.92;;
20709;SDS011;10516;51.518;9.864;2022-08-03T13:22:54;2.03;;;1.83;;
20709;SDS011;10516;51.518;9.864;2022-08-03T13:25:20;3.08;;;1.92;;
20709;SDS011;10516;51.518;9.864;2022-08-03T13:27:47;1.80;;;1.70;;
20709;SDS011;10516;51.518;9.864;2022-08-03T13:30:13;1.75;;;1.65;;
20709;SDS011;10516;51.518;9.864;2022-08-03T13:32:39;1.75;;;1.65;;
20709;SDS011;10516;51.518;9.864;2022-08-03T13:35:05;2.15;;;1.42;;
20709;SDS011;10516;51.518;9.864;2022-08-03T13:37:31;4.07;;;1.92;;
20709;SDS011;10516;51.518;9.864;2022-08-03T13:39:57;1.67;;;1.58;;
20709;SDS011;10516;51.518;9.864;2022-08-03T13:42:24;4.47;;;1.80;;
20709;SDS011;10516;51.518;9.864;2022-08-03T13:44:49;5.07;;;1.77;;
20709;SDS011;10516;51.518;9.864;2022-08-03T13:47:15;2.10;;;1.90;;
20709;SDS011;10516;51.518;9.864;2022-08-03T13:49:41;2.60;;;2.40;;
20709;SDS011;10516;51.518;9.864;2022-08-03T13:52:06;3.15;;;1.77;;
20709;SDS011;10516;51.518;9.864;2022-08-03T13:54:32;2.30;;;1.80;;
20709;SDS011;10516;51.518;9.864;2022-08-03T13:56:58;2.95;;;1.95;;
20709;SDS011;10516;51.518;9.864;2022-08-03T13:59:24;2.95;;;1.90;;
20709;SDS011;10516;51.518;9.864;2022-08-03T14:01:51;2.00;;;1.80;;
20709;SDS011;10516;51.518;9.864;2022-08-03T14:04:17;3.60;;;1.65;;
20709;SDS011;10516;51.518;9.864;2022-08-03T14:06:43;1.70;;;1.60;;
20709;SDS011;10516;51.518;9.864;2022-08-03T14:09:12;3.83;;;1.70;;
20709;SDS011;10516;51.518;9.864;2022-08-03T14:11:39;5.50;;;1.88;;
20709;SDS011;10516;51.518;9.864;2022-08-03T14:14:05;3.67;;;1.60;;
20709;SDS011;10516;51.518;9.864;2022-08-03T14:16:30;1.80;;;1.70;;
20709;SDS011;10516;51.518;9.864;2022-08-03T14:18:55;1.48;;;1.38;;
20709;SDS011;10516;51.518;9.864;2022-08-03T14:21:21;3.53;;;1.70;;
20709;SDS011;10516;51.518;9.864;2022-08-03T14:23:46;1.77;;;1.67;;
20709;SDS011;10516;51.518;9.864;2022-08-03T14:26:12;2.65;;;1.52;;
20709;SDS011;10516;51.518;9.864;2022-08-03T14:28:38;2.60;;;1.70;;
20709;SDS011;10516;51.518;9.864;2022-08-03T14:31:04;2.08;;;1.40;;
20709;SDS011;10516;51.518;9.864;2022-08-03T14:33:30;2.17;;;1.98;;
20709;SDS011;10516;51.518;9.864;2022-08-03T14:35:55;1.65;;;1.50;;
20709;SDS011;10516;51.518;9.864;2022-08-03T14:38:22;6.38;;;1.70;;
20709;SDS011;10516;51.518;9.864;2022-08-03T14:40:48;5.85;;;1.73;;
20709;SDS011;10516;51.518;9.864;2022-08-03T14:43:14;2.00;;;1.83;;
20709;SDS011;10516;51.518;9.864;2022-08-03T14:45:42;1.75;;;1.65;;
20709;SDS011;10516;51.518;9.864;2022-08-03T14:48:07;3.33;;;1.90;;
20709;SDS011;10516;51.518;9.864;2022-08-03T14:50:33;1.83;;;1.73;;
20709;SDS011;10516;51.518;9.864;2022-08-03T14:52:58;1.77;;;1.50;;
20709;SDS011;10516;51.518;9.864;2022-08-03T14:55:24;2.00;;;1.88;;
20709;SDS011;10516;51.518;9.864;2022-08-03T14:57:49;2.47;;;1.42;;
20709;SDS011;10516;51.518;9.864;2022-08-03T15:00:14;2.40;;;1.95;;
20709;SDS011;10516;51.518;9.864;2022-08-03T15:02:40;2.47;;;1.80;;
20709;SDS011;10516;51.518;9.864;2022-08-03T15:05:06;1.80;;;1.70;;
20709;SDS011;10516;51.518;9.864;2022-08-03T15:07:31;1.70;;;1.60;;
20709;SDS011;10516;51.518;9.864;2022-08-03T15:09:57;1.80;;;1.70;;
20709;SDS011;10516;51.518;9.864;2022-08-03T15:12:23;3.28;;;1.52;;
20709;SDS011;10516;51.518;9.864;2022-08-03T15:14:49;2.85;;;1.73;;
20709;SDS011;10516;51.518;9.864;2022-08-03T15:17:14;3.35;;;2.08;;
20709;SDS011;10516;51.518;9.864;2022-08-03T15:19:40;2.83;;;1.55;;
20709;SDS011;10516;51.518;9.864;2022-08-03T15:22:08;2.03;;;1.80;;
20709;SDS011;10516;51.518;9.864;2022-08-03T15:24:34;1.60;;;1.50;;
20709;SDS011;10516;51.518;9.864;2022-08-03T15:26:59;3.63;;;1.50;;
20709;SDS011;10516;51.518;9.864;2022-08-03T15:29:25;1.70;;;1.60;;
20709;SDS011;10516;51.518;9.864;2022-08-03T15:31:50;1.70;;;1.60;;
20709;SDS011;10516;51.518;9.864;2022-08-03T15:34:15;1.83;;;1.38;;
20709;SDS011;10516;51.518;9.864;2022-08-03T15:36:42;1.95;;;1.55;;
20709;SDS011;10516;51.518;9.864;2022-08-03T15:39:09;3.58;;;1.70;;
20709;SDS011;10516;51.518;9.864;2022-08-03T15:41:34;1.65;;;1.55;;
20709;SDS011;10516;51.518;9.864;2022-08-03T15:44:00;1.88;;;1.70;;
20709;SDS011;10516;51.518;9.864;2022-08-03T15:46:26;1.83;;;1.73;;
20709;SDS011;10516;51.518;9.864;2022-08-03T15:48:51;1.80;;;1.70;;
20709;SDS011;10516;51.518;9.864;2022-08-03T15:51:16;1.95;;;1.80;;